createdAt,value
2023-03-01T00:00:22.304Z,0.00
2023-03-01T00:01:22.321Z,0.00
2023-03-01T00:02:22.307Z,0.00
2023-03-01T00:03:22.331Z,0.00
2023-03-01T00:04:22.290Z,0.00
2023-03-01T00:05:22.252Z,0.00
2023-03-01T00:06:22.238Z,0.00
2023-03-01T00:07:22.237Z,0.00
2023-03-01T00:08:22.252Z,0.00
2023-03-01T00:09:22.235Z,0.00
2023-03-01T00:10:22.215Z,0.00
2023-03-01T00:11:22.227Z,0.00
2023-03-01T00:12:22.178Z,0.00
2023-03-01T00:13:22.178Z,0.00
2023-03-01T00:14:22.226Z,0.00
2023-03-01T00:15:22.155Z,0.00
2023-03-01T00:16:22.188Z,0.00
2023-03-01T00:17:22.141Z,0.00
2023-03-01T00:18:22.124Z,0.00
2023-03-01T00:19:22.152Z,0.00
2023-03-01T00:20:22.103Z,0.00
2023-03-01T00:21:22.099Z,0.00
2023-03-01T00:22:22.093Z,0.00
2023-03-01T00:23:22.075Z,0.00
2023-03-01T00:24:22.084Z,0.00
2023-03-01T00:25:22.051Z,0.00
2023-03-01T00:26:22.048Z,0.00
2023-03-01T00:27:22.046Z,0.00
2023-03-01T00:28:22.032Z,0.00
2023-03-01T00:29:22.033Z,0.00
2023-03-01T00:30:22.021Z,0.00
2023-03-01T00:31:22.008Z,0.00
2023-03-01T00:32:22.022Z,0.00
2023-03-01T00:33:21.983Z,0.00
2023-03-01T00:34:22.132Z,0.00
2023-03-01T00:35:21.973Z,0.00
2023-03-01T00:36:21.949Z,0.00
2023-03-01T00:37:21.942Z,0.00
2023-03-01T00:38:21.915Z,0.00
2023-03-01T00:39:22.938Z,0.00
2023-03-01T00:40:21.905Z,0.00
2023-03-01T00:41:21.901Z,0.00
2023-03-01T00:42:21.891Z,0.00
2023-03-01T00:43:21.886Z,0.00
2023-03-01T00:44:21.906Z,0.00
2023-03-01T00:45:21.861Z,0.00
2023-03-01T00:46:21.888Z,0.00
2023-03-01T00:47:21.848Z,0.00
2023-03-01T00:48:21.841Z,0.00
2023-03-01T00:49:21.880Z,0.00
2023-03-01T00:50:21.825Z,0.00
2023-03-01T00:51:21.808Z,0.00
2023-03-01T00:52:21.802Z,0.00
2023-03-01T00:53:21.790Z,0.00
2023-03-01T00:54:21.791Z,0.00
2023-03-01T00:55:21.768Z,0.00
2023-03-01T00:56:21.764Z,0.00
2023-03-01T00:57:21.756Z,0.00
2023-03-01T00:58:21.740Z,0.00
2023-03-01T00:59:21.762Z,0.00
2023-03-01T01:00:21.718Z,0.00
2023-03-01T01:01:21.742Z,0.00
2023-03-01T01:02:21.714Z,0.00
2023-03-01T01:03:21.680Z,0.00
2023-03-01T01:04:21.728Z,0.00
2023-03-01T01:05:21.678Z,0.00
2023-03-01T01:06:21.670Z,0.00
2023-03-01T01:07:21.659Z,0.00
2023-03-01T01:08:21.640Z,0.00
2023-03-01T01:09:21.650Z,0.00
2023-03-01T01:10:21.623Z,0.00
2023-03-01T01:11:21.604Z,0.00
2023-03-01T01:12:21.601Z,0.00
2023-03-01T01:13:21.619Z,0.00
2023-03-01T01:14:21.615Z,0.00
2023-03-01T01:15:21.566Z,0.00
2023-03-01T01:16:21.557Z,0.00
2023-03-01T01:17:21.548Z,0.00
2023-03-01T01:18:21.533Z,0.00
2023-03-01T01:19:21.551Z,0.00
2023-03-01T01:20:21.517Z,0.00
2023-03-01T01:21:21.508Z,0.00
2023-03-01T01:22:21.514Z,0.00
2023-03-01T01:23:21.491Z,0.00
2023-03-01T01:24:21.531Z,0.00
2023-03-01T01:25:21.467Z,0.00
2023-03-01T01:26:21.469Z,0.00
2023-03-01T01:27:21.451Z,0.00
2023-03-01T01:28:21.446Z,0.00
2023-03-01T01:29:21.477Z,0.00
2023-03-01T01:30:21.430Z,0.00
2023-03-01T01:31:21.436Z,0.00
2023-03-01T01:32:21.484Z,0.00
2023-03-01T01:33:21.412Z,0.00
2023-03-01T01:34:21.430Z,0.00
2023-03-01T01:35:21.404Z,0.00
2023-03-01T01:36:21.365Z,0.00
2023-03-01T01:37:21.358Z,0.00
2023-03-01T01:38:21.352Z,0.00
2023-03-01T01:39:21.357Z,0.00
2023-03-01T01:40:21.320Z,0.00
2023-03-01T01:41:21.309Z,0.00
2023-03-01T01:42:21.296Z,0.00
2023-03-01T01:43:21.288Z,0.00
2023-03-01T01:44:21.346Z,0.00
2023-03-01T01:45:21.286Z,0.00
2023-03-01T01:46:21.292Z,0.00
2023-03-01T01:47:21.255Z,0.00
2023-03-01T01:48:21.260Z,0.00
2023-03-01T01:49:21.263Z,0.00
2023-03-01T01:50:21.267Z,0.00
2023-03-01T01:51:21.227Z,0.00
2023-03-01T01:52:21.199Z,0.00
2023-03-01T01:53:21.199Z,0.00
2023-03-01T01:54:21.230Z,0.00
2023-03-01T01:55:21.175Z,0.00
2023-03-01T01:56:21.167Z,0.00
2023-03-01T01:57:21.157Z,0.00
2023-03-01T01:58:21.145Z,0.00
2023-03-01T01:59:21.144Z,0.00
2023-03-01T02:00:21.118Z,0.00
2023-03-01T02:01:21.111Z,0.00
2023-03-01T02:02:21.284Z,0.00
2023-03-01T02:03:21.200Z,0.00
2023-03-01T02:04:21.128Z,0.00
2023-03-01T02:05:21.071Z,0.00
2023-03-01T02:06:21.060Z,0.00
2023-03-01T02:07:22.054Z,0.00
2023-03-01T02:08:21.048Z,0.00
2023-03-01T02:09:21.048Z,0.00
2023-03-01T02:10:21.055Z,0.00
2023-03-01T02:11:21.017Z,0.00
2023-03-01T02:12:21.018Z,0.00
2023-03-01T02:13:21.026Z,0.00
2023-03-01T02:14:21.000Z,0.00
2023-03-01T02:15:21.081Z,0.00
2023-03-01T02:16:21.027Z,0.00
2023-03-01T02:17:20.962Z,0.00
2023-03-01T02:18:20.963Z,0.00
2023-03-01T02:19:20.938Z,0.00
2023-03-01T02:20:21.963Z,0.00
2023-03-01T02:21:20.924Z,0.00
2023-03-01T02:22:21.054Z,0.00
2023-03-01T02:23:20.907Z,0.00
2023-03-01T02:24:20.899Z,0.00
2023-03-01T02:25:20.931Z,0.00
2023-03-01T02:26:20.886Z,0.00
2023-03-01T02:27:20.874Z,0.00
2023-03-01T02:28:20.861Z,0.00
2023-03-01T02:29:20.856Z,0.00
2023-03-01T02:30:20.896Z,0.00
2023-03-01T02:31:20.840Z,0.00
2023-03-01T02:32:20.871Z,0.00
2023-03-01T02:33:20.817Z,0.00
2023-03-01T02:34:20.807Z,0.00
2023-03-01T02:35:20.857Z,0.00
2023-03-01T02:36:20.789Z,0.00
2023-03-01T02:37:20.787Z,0.00
2023-03-01T02:38:20.771Z,0.00
2023-03-01T02:39:20.780Z,0.00
2023-03-01T02:40:20.780Z,0.00
2023-03-01T02:41:20.755Z,0.00
2023-03-01T02:42:20.738Z,0.00
2023-03-01T02:43:20.730Z,0.00
2023-03-01T02:44:20.716Z,0.00
2023-03-01T02:45:20.750Z,0.00
2023-03-01T02:46:20.721Z,0.00
2023-03-01T02:47:20.689Z,0.00
2023-03-01T02:48:20.679Z,0.00
2023-03-01T02:49:20.665Z,0.00
2023-03-01T02:50:20.693Z,0.00
2023-03-01T02:51:20.660Z,0.00
2023-03-01T02:52:20.642Z,0.00
2023-03-01T02:53:20.635Z,0.00
2023-03-01T02:54:20.622Z,0.00
2023-03-01T02:55:20.642Z,0.00
2023-03-01T02:56:20.602Z,0.00
2023-03-01T02:57:20.591Z,0.00
2023-03-01T02:58:20.601Z,0.00
2023-03-01T02:59:20.580Z,0.00
2023-03-01T03:00:20.742Z,0.00
2023-03-01T03:01:20.573Z,0.00
2023-03-01T03:02:20.553Z,0.00
2023-03-01T03:03:20.612Z,0.00
2023-03-01T03:04:20.532Z,0.00
2023-03-01T03:05:20.586Z,0.00
2023-03-01T03:06:20.522Z,0.00
2023-03-01T03:07:20.515Z,0.00
2023-03-01T03:08:20.545Z,0.00
2023-03-01T03:09:20.505Z,0.00
2023-03-01T03:10:20.558Z,0.00
2023-03-01T03:11:20.469Z,0.00
2023-03-01T03:12:20.458Z,0.00
2023-03-01T03:13:20.456Z,0.00
2023-03-01T03:14:20.442Z,0.00
2023-03-01T03:15:20.459Z,0.00
2023-03-01T03:16:20.511Z,0.00
2023-03-01T03:17:20.410Z,0.00
2023-03-01T03:18:20.406Z,0.00
2023-03-01T03:19:20.395Z,0.00
2023-03-01T03:20:20.440Z,0.00
2023-03-01T03:21:20.372Z,0.00
2023-03-01T03:22:20.362Z,0.00
2023-03-01T03:23:20.360Z,0.00
2023-03-01T03:24:20.348Z,0.00
2023-03-01T03:25:20.385Z,0.00
2023-03-01T03:26:20.325Z,0.00
2023-03-01T03:27:20.321Z,0.00
2023-03-01T03:28:20.319Z,0.00
2023-03-01T03:29:20.312Z,0.00
2023-03-01T03:30:20.311Z,0.00
2023-03-01T03:31:20.342Z,0.00
2023-03-01T03:32:20.268Z,0.00
2023-03-01T03:33:20.276Z,0.00
2023-03-01T03:34:21.258Z,0.00
2023-03-01T03:35:20.341Z,0.00
2023-03-01T03:36:20.243Z,0.00
2023-03-01T03:37:20.248Z,0.00
2023-03-01T03:38:20.219Z,0.00
2023-03-01T03:39:20.734Z,0.00
2023-03-01T03:40:21.216Z,0.00
2023-03-01T03:41:20.197Z,0.00
2023-03-01T03:42:20.190Z,0.00
2023-03-01T03:43:20.181Z,0.00
2023-03-01T03:44:20.172Z,0.00
2023-03-01T03:45:20.174Z,0.00
2023-03-01T03:46:20.148Z,0.00
2023-03-01T03:47:20.140Z,0.00
2023-03-01T03:48:20.155Z,0.00
2023-03-01T03:49:20.118Z,0.00
2023-03-01T03:50:20.137Z,0.00
2023-03-01T03:51:20.116Z,0.00
2023-03-01T03:52:20.104Z,0.00
2023-03-01T03:53:20.093Z,0.00
2023-03-01T03:54:20.084Z,0.00
2023-03-01T03:55:20.118Z,0.00
2023-03-01T03:56:20.058Z,0.00
2023-03-01T03:57:20.059Z,0.00
2023-03-01T03:58:20.046Z,0.00
2023-03-01T03:59:20.037Z,0.00
2023-03-01T04:00:20.038Z,0.00
2023-03-01T04:01:20.094Z,0.00
2023-03-01T04:02:20.013Z,0.00
2023-03-01T04:03:21.005Z,0.00
2023-03-01T04:04:19.996Z,0.00
2023-03-01T04:05:20.006Z,0.00
2023-03-01T04:06:19.971Z,0.00
2023-03-01T04:07:19.966Z,0.00
2023-03-01T04:08:19.957Z,0.00
2023-03-01T04:09:19.949Z,0.00
2023-03-01T04:10:19.953Z,0.00
2023-03-01T04:11:19.933Z,0.00
2023-03-01T04:12:19.925Z,0.00
2023-03-01T04:13:19.915Z,0.00
2023-03-01T04:14:19.909Z,0.00
2023-03-01T04:15:19.918Z,0.00
2023-03-01T04:16:19.945Z,0.00
2023-03-01T04:17:19.884Z,0.00
2023-03-01T04:18:19.866Z,0.00
2023-03-01T04:19:19.858Z,0.00
2023-03-01T04:20:19.864Z,0.00
2023-03-01T04:21:19.853Z,0.00
2023-03-01T04:22:19.837Z,0.00
2023-03-01T04:23:19.831Z,0.00
2023-03-01T04:24:19.819Z,0.00
2023-03-01T04:25:19.880Z,0.00
2023-03-01T04:26:19.814Z,0.00
2023-03-01T04:27:19.787Z,0.00
2023-03-01T04:28:19.779Z,0.00
2023-03-01T04:29:19.775Z,0.00
2023-03-01T04:30:19.782Z,0.00
2023-03-01T04:31:19.805Z,0.00
2023-03-01T04:32:19.887Z,0.00
2023-03-01T04:33:19.740Z,0.00
2023-03-01T04:34:19.726Z,0.00
2023-03-01T04:35:19.727Z,0.00
2023-03-01T04:36:19.802Z,0.00
2023-03-01T04:37:19.697Z,0.00
2023-03-01T04:38:19.706Z,0.00
2023-03-01T04:39:19.687Z,0.00
2023-03-01T04:40:19.673Z,0.00
2023-03-01T04:41:19.676Z,0.00
2023-03-01T04:42:19.671Z,0.00
2023-03-01T04:43:19.679Z,0.00
2023-03-01T04:44:19.631Z,0.00
2023-03-01T04:45:19.630Z,0.00
2023-03-01T04:46:19.682Z,0.00
2023-03-01T04:47:19.617Z,0.00
2023-03-01T04:48:19.625Z,0.00
2023-03-01T04:49:19.600Z,0.00
2023-03-01T04:50:19.613Z,0.00
2023-03-01T04:51:19.670Z,0.00
2023-03-01T04:52:19.569Z,0.00
2023-03-01T04:53:19.555Z,0.00
2023-03-01T04:54:19.556Z,0.00
2023-03-01T04:55:19.591Z,0.00
2023-03-01T04:56:19.540Z,0.00
2023-03-01T04:57:19.527Z,0.00
2023-03-01T04:58:19.551Z,0.00
2023-03-01T04:59:19.514Z,0.00
2023-03-01T05:00:19.509Z,0.00
2023-03-01T05:01:19.505Z,0.00
2023-03-01T05:02:19.478Z,0.00
2023-03-01T05:03:19.473Z,0.00
2023-03-01T05:04:19.481Z,0.00
2023-03-01T05:05:19.479Z,0.00
2023-03-01T05:06:19.455Z,0.00
2023-03-01T05:07:19.440Z,0.00
2023-03-01T05:08:19.450Z,0.00
2023-03-01T05:09:19.416Z,0.00
2023-03-01T05:10:19.418Z,0.00
2023-03-01T05:11:19.415Z,0.00
2023-03-01T05:12:19.401Z,0.00
2023-03-01T05:13:19.421Z,0.00
2023-03-01T05:14:19.379Z,0.00
2023-03-01T05:15:19.387Z,0.00
2023-03-01T05:16:19.395Z,0.00
2023-03-01T05:17:19.347Z,0.00
2023-03-01T05:18:19.352Z,0.00
2023-03-01T05:19:19.338Z,0.00
2023-03-01T05:20:19.330Z,0.00
2023-03-01T05:21:19.324Z,0.00
2023-03-01T05:22:19.318Z,0.00
2023-03-01T05:23:19.326Z,0.00
2023-03-01T05:24:20.293Z,0.00
2023-03-01T05:25:19.293Z,0.00
2023-03-01T05:26:28.459Z,0.00
2023-03-01T05:27:21.272Z,0.00
2023-03-01T05:28:19.287Z,0.00
2023-03-01T05:29:19.251Z,0.00
2023-03-01T05:30:19.247Z,0.00
2023-03-01T05:31:19.339Z,0.00
2023-03-01T05:32:19.259Z,0.00
2023-03-01T05:33:19.234Z,0.00
2023-03-01T05:34:19.220Z,4.00
2023-03-01T05:35:19.320Z,4.00
2023-03-01T05:36:19.214Z,0.00
2023-03-01T05:37:19.179Z,4.00
2023-03-01T05:38:19.180Z,0.00
2023-03-01T05:39:19.165Z,4.00
2023-03-01T05:40:19.159Z,4.00
2023-03-01T05:41:19.171Z,8.00
2023-03-01T05:42:19.151Z,8.00
2023-03-01T05:43:19.142Z,4.00
2023-03-01T05:44:19.129Z,8.00
2023-03-01T05:45:19.159Z,8.00
2023-03-01T05:46:19.187Z,12.00
2023-03-01T05:47:19.101Z,16.00
2023-03-01T05:48:19.099Z,20.00
2023-03-01T05:49:20.116Z,24.00
2023-03-01T05:50:19.078Z,28.00
2023-03-01T05:51:19.089Z,32.00
2023-03-01T05:52:19.050Z,40.00
2023-03-01T05:53:19.047Z,44.00
2023-03-01T05:54:19.037Z,56.00
2023-03-01T05:55:19.032Z,64.00
2023-03-01T05:56:19.044Z,72.00
2023-03-01T05:57:19.016Z,88.00
2023-03-01T05:58:19.020Z,100.00
2023-03-01T05:59:18.999Z,120.00
2023-03-01T06:00:18.988Z,136.00
2023-03-01T06:01:19.006Z,156.00
2023-03-01T06:02:18.973Z,180.00
2023-03-01T06:03:18.968Z,204.00
2023-03-01T06:04:19.011Z,228.00
2023-03-01T06:05:19.005Z,256.00
2023-03-01T06:06:18.962Z,288.00
2023-03-01T06:07:18.936Z,324.00
2023-03-01T06:08:18.927Z,360.00
2023-03-01T06:09:18.957Z,400.00
2023-03-01T06:10:18.910Z,436.00
2023-03-01T06:11:18.915Z,480.00
2023-03-01T06:12:18.887Z,528.00
2023-03-01T06:13:18.881Z,572.00
2023-03-01T06:14:18.868Z,624.00
2023-03-01T06:15:18.856Z,676.00
2023-03-01T06:16:18.896Z,732.00
2023-03-01T06:17:18.846Z,788.00
2023-03-01T06:18:18.856Z,844.00
2023-03-01T06:19:18.826Z,908.00
2023-03-01T06:20:18.818Z,968.00
2023-03-01T06:21:18.808Z,1032.00
2023-03-01T06:22:18.814Z,1096.00
2023-03-01T06:23:18.807Z,1160.00
2023-03-01T06:24:18.788Z,1224.00
2023-03-01T06:25:18.775Z,1292.00
2023-03-01T06:26:18.779Z,1364.00
2023-03-01T06:27:18.748Z,1432.00
2023-03-01T06:28:18.756Z,1500.00
2023-03-01T06:29:18.734Z,1568.00
2023-03-01T06:30:18.731Z,1636.00
2023-03-01T06:31:18.741Z,1704.00
2023-03-01T06:32:18.753Z,1776.00
2023-03-01T06:33:18.698Z,1848.00
2023-03-01T06:34:18.693Z,1916.00
2023-03-01T06:35:18.701Z,1984.00
2023-03-01T06:36:18.706Z,2052.00
2023-03-01T06:37:18.668Z,2124.00
2023-03-01T06:38:18.669Z,2192.00
2023-03-01T06:39:18.652Z,2260.00
2023-03-01T06:40:18.659Z,2328.00
2023-03-01T06:41:18.653Z,2396.00
2023-03-01T06:42:18.619Z,2460.00
2023-03-01T06:43:18.613Z,2528.00
2023-03-01T06:44:18.612Z,2592.00
2023-03-01T06:45:18.603Z,2652.00
2023-03-01T06:46:18.659Z,2716.00
2023-03-01T06:47:18.585Z,2780.00
2023-03-01T06:49:56.306Z,2948.00
2023-03-01T06:50:56.299Z,3008.00
2023-03-01T06:51:56.330Z,3068.00
2023-03-01T06:52:56.262Z,3132.00
2023-03-01T06:53:56.253Z,3188.00
2023-03-01T06:54:56.231Z,3244.00
2023-03-01T06:55:56.307Z,3308.00
2023-03-01T06:56:56.226Z,3364.00
2023-03-01T06:57:56.226Z,3424.00
2023-03-01T06:58:56.197Z,3480.00
2023-03-01T06:59:56.197Z,3536.00
2023-03-01T07:00:56.201Z,3592.00
2023-03-01T07:01:56.220Z,3640.00
2023-03-01T07:02:56.311Z,3692.00
2023-03-01T07:03:56.163Z,3744.00
2023-03-01T07:04:56.145Z,3796.00
2023-03-01T07:05:56.164Z,3848.00
2023-03-01T07:06:56.189Z,3904.00
2023-03-01T07:07:56.144Z,3952.00
2023-03-01T07:08:56.132Z,4000.00
2023-03-01T07:09:56.100Z,4052.00
2023-03-01T07:10:56.092Z,4104.00
2023-03-01T07:11:56.086Z,4152.00
2023-03-01T07:12:56.082Z,4204.00
2023-03-01T07:13:56.119Z,4244.00
2023-03-01T07:14:56.050Z,4292.00
2023-03-01T07:15:56.065Z,4344.00
2023-03-01T07:16:56.034Z,4388.00
2023-03-01T07:17:56.028Z,4428.00
2023-03-01T07:18:56.033Z,4476.00
2023-03-01T07:19:56.014Z,4520.00
2023-03-01T07:20:56.009Z,4560.00
2023-03-01T07:21:55.986Z,4608.00
2023-03-01T07:22:55.981Z,4648.00
2023-03-01T07:23:55.978Z,4692.00
2023-03-01T07:24:55.968Z,4736.00
2023-03-01T07:25:57.093Z,4776.00
2023-03-01T07:26:57.066Z,4812.00
2023-03-01T07:27:57.053Z,4856.00
2023-03-01T07:28:57.053Z,4900.00
2023-03-01T07:29:57.040Z,4944.00
2023-03-01T07:30:57.045Z,4988.00
2023-03-01T07:31:57.075Z,5024.00
2023-03-01T07:32:57.159Z,5068.00
2023-03-01T07:33:57.022Z,5108.00
2023-03-01T07:34:56.992Z,5144.00
2023-03-01T07:35:56.992Z,5180.00
2023-03-01T07:36:56.974Z,5216.00
2023-03-01T07:37:56.964Z,5260.00
2023-03-01T07:38:56.974Z,5296.00
2023-03-01T07:39:56.955Z,5336.00
2023-03-01T07:40:56.942Z,5376.00
2023-03-01T07:41:56.943Z,5408.00
2023-03-01T07:42:56.912Z,5444.00
2023-03-01T07:43:56.899Z,5480.00
2023-03-01T07:44:56.900Z,5508.00
2023-03-01T07:45:56.895Z,5540.00
2023-03-01T07:46:56.896Z,5568.00
2023-03-01T07:47:56.872Z,5596.00
2023-03-01T07:48:56.862Z,5632.00
2023-03-01T07:49:56.858Z,5660.00
2023-03-01T07:50:56.841Z,5680.00
2023-03-01T07:51:56.920Z,5724.00
2023-03-01T07:52:56.822Z,5756.00
2023-03-01T07:53:56.867Z,5780.00
2023-03-01T07:54:56.823Z,5804.00
2023-03-01T07:55:56.824Z,5832.00
2023-03-01T07:56:56.816Z,5856.00
2023-03-01T07:57:56.777Z,5876.00
2023-03-01T07:58:56.762Z,5900.00
2023-03-01T07:59:56.746Z,5924.00
2023-03-01T08:00:56.736Z,5956.00
2023-03-01T08:01:56.812Z,5976.00
2023-03-01T08:02:56.772Z,6000.00
2023-03-01T08:03:56.709Z,6020.00
2023-03-01T08:04:56.786Z,6048.00
2023-03-01T08:05:56.687Z,6068.00
2023-03-01T08:06:56.694Z,6096.00
2023-03-01T08:07:56.662Z,6124.00
2023-03-01T08:08:57.672Z,6152.00
2023-03-01T08:09:56.646Z,6172.00
2023-03-01T08:10:56.652Z,6200.00
2023-03-01T08:11:56.735Z,6216.00
2023-03-01T08:12:56.617Z,6248.00
2023-03-01T08:13:56.602Z,6272.00
2023-03-01T08:14:56.597Z,6296.00
2023-03-01T08:15:56.591Z,6316.00
2023-03-01T08:16:56.650Z,6336.00
2023-03-01T08:17:56.575Z,6348.00
2023-03-01T08:18:56.556Z,6360.00
2023-03-01T08:19:56.558Z,6376.00
2023-03-01T08:20:56.533Z,6400.00
2023-03-01T08:21:56.552Z,6412.00
2023-03-01T08:22:56.524Z,6432.00
2023-03-01T08:23:56.514Z,6436.00
2023-03-01T08:24:56.518Z,6444.00
2023-03-01T08:25:56.492Z,6452.00
2023-03-01T08:26:56.517Z,6476.00
2023-03-01T08:27:56.495Z,6492.00
2023-03-01T08:28:56.483Z,6504.00
2023-03-01T08:29:56.455Z,6520.00
2023-03-01T08:30:56.445Z,6536.00
2023-03-01T08:31:56.604Z,6544.00
2023-03-01T08:32:57.112Z,6556.00
2023-03-01T08:33:56.981Z,6572.00
2023-03-01T08:34:56.959Z,6584.00
2023-03-01T08:35:56.475Z,6596.00
2023-03-01T08:36:56.394Z,6600.00
2023-03-01T08:37:56.380Z,6616.00
2023-03-01T08:38:56.367Z,6616.00
2023-03-01T08:39:56.439Z,6620.00
2023-03-01T08:40:56.341Z,6640.00
2023-03-01T08:41:56.360Z,6652.00
2023-03-01T08:42:56.344Z,6664.00
2023-03-01T08:43:56.319Z,6676.00
2023-03-01T08:44:56.297Z,6688.00
2023-03-01T08:45:57.355Z,6700.00
2023-03-01T08:46:56.321Z,6712.00
2023-03-01T08:47:56.292Z,6724.00
2023-03-01T08:48:56.269Z,6732.00
2023-03-01T08:49:56.259Z,6736.00
2023-03-01T08:50:56.253Z,6756.00
2023-03-01T08:51:56.260Z,6768.00
2023-03-01T08:52:56.232Z,6776.00
2023-03-01T08:53:56.224Z,6796.00
2023-03-01T08:54:56.209Z,6812.00
2023-03-01T08:55:56.218Z,6828.00
2023-03-01T08:56:56.209Z,6848.00
2023-03-01T08:57:56.190Z,6848.00
2023-03-01T08:58:56.184Z,6856.00
2023-03-01T08:59:56.183Z,6876.00
2023-03-01T09:00:56.159Z,6892.00
2023-03-01T09:01:56.193Z,6900.00
2023-03-01T09:02:56.127Z,6904.00
2023-03-01T09:03:56.154Z,6912.00
2023-03-01T09:04:56.109Z,6924.00
2023-03-01T09:05:56.106Z,6936.00
2023-03-01T09:06:56.130Z,6948.00
2023-03-01T09:07:56.121Z,6968.00
2023-03-01T09:08:56.077Z,6976.00
2023-03-01T09:09:56.073Z,6984.00
2023-03-01T09:10:56.071Z,6984.00
2023-03-01T09:11:56.074Z,6984.00
2023-03-01T09:12:56.046Z,7012.00
2023-03-01T09:13:56.042Z,7032.00
2023-03-01T09:14:56.034Z,7020.00
2023-03-01T09:15:56.025Z,7032.00
2023-03-01T09:16:56.094Z,7048.00
2023-03-01T09:17:56.010Z,7064.00
2023-03-01T09:18:56.017Z,7068.00
2023-03-01T09:19:56.053Z,7088.00
2023-03-01T09:20:55.995Z,7084.00
2023-03-01T09:21:55.973Z,7104.00
2023-03-01T09:22:55.954Z,7108.00
2023-03-01T09:23:55.954Z,7108.00
2023-03-01T09:24:55.936Z,7128.00
2023-03-01T09:25:55.934Z,7140.00
2023-03-01T09:26:55.943Z,7148.00
2023-03-01T09:27:55.910Z,7160.00
2023-03-01T09:28:55.906Z,7160.00
2023-03-01T09:29:55.893Z,7176.00
2023-03-01T09:30:55.938Z,7196.00
2023-03-01T09:31:55.986Z,7212.00
2023-03-01T09:32:55.888Z,7220.00
2023-03-01T09:33:55.889Z,7232.00
2023-03-01T09:34:55.862Z,7248.00
2023-03-01T09:35:55.870Z,7252.00
2023-03-01T09:36:55.866Z,7264.00
2023-03-01T09:37:55.909Z,7284.00
2023-03-01T09:38:55.821Z,7292.00
2023-03-01T09:39:55.816Z,7300.00
2023-03-01T09:40:55.812Z,7308.00
2023-03-01T09:41:55.837Z,7328.00
2023-03-01T09:42:55.789Z,7344.00
2023-03-01T09:43:56.674Z,7348.00
2023-03-01T09:44:56.771Z,7352.00
2023-03-01T09:45:55.780Z,7364.00
2023-03-01T09:46:55.780Z,7376.00
2023-03-01T09:47:55.748Z,7376.00
2023-03-01T09:48:55.757Z,7384.00
2023-03-01T09:49:55.731Z,7384.00
2023-03-01T09:50:55.736Z,7404.00
2023-03-01T09:51:55.748Z,7392.00
2023-03-01T09:52:55.711Z,7392.00
2023-03-01T09:53:55.711Z,7404.00
2023-03-01T09:54:55.782Z,7424.00
2023-03-01T09:55:55.706Z,7420.00
2023-03-01T09:56:55.706Z,7424.00
2023-03-01T09:57:55.688Z,7432.00
2023-03-01T09:58:55.668Z,7428.00
2023-03-01T09:59:55.709Z,7432.00
2023-03-01T10:00:55.647Z,7432.00
2023-03-01T10:01:55.684Z,7436.00
2023-03-01T10:02:55.659Z,7440.00
2023-03-01T10:03:55.696Z,7440.00
2023-03-01T10:04:55.665Z,7460.00
2023-03-01T10:05:55.612Z,7464.00
2023-03-01T10:06:55.652Z,7488.00
2023-03-01T10:07:55.597Z,7484.00
2023-03-01T10:08:55.583Z,7488.00
2023-03-01T10:09:55.577Z,7496.00
2023-03-01T10:10:55.570Z,7508.00
2023-03-01T10:11:55.592Z,7520.00
2023-03-01T10:12:55.558Z,7528.00
2023-03-01T10:13:55.545Z,7532.00
2023-03-01T10:14:55.545Z,7540.00
2023-03-01T10:15:55.560Z,7536.00
2023-03-01T10:16:55.571Z,7540.00
2023-03-01T10:17:55.505Z,7536.00
2023-03-01T10:18:55.505Z,7540.00
2023-03-01T10:19:55.497Z,7560.00
2023-03-01T10:20:55.493Z,7560.00
2023-03-01T10:21:55.497Z,7564.00
2023-03-01T10:22:55.463Z,7568.00
2023-03-01T10:23:55.475Z,7576.00
2023-03-01T10:24:55.458Z,7572.00
2023-03-01T10:25:55.477Z,7568.00
2023-03-01T10:26:55.445Z,7572.00
2023-03-01T10:27:56.415Z,7576.00
2023-03-01T10:28:55.436Z,7568.00
2023-03-01T10:29:55.422Z,7564.00
2023-03-01T10:30:55.406Z,7568.00
2023-03-01T10:31:55.430Z,7580.00
2023-03-01T10:32:55.374Z,7584.00
2023-03-01T10:33:55.362Z,7596.00
2023-03-01T10:34:55.361Z,7600.00
2023-03-01T10:35:55.473Z,7604.00
2023-03-01T10:36:55.446Z,7616.00
2023-03-01T10:37:55.322Z,7624.00
2023-03-01T10:38:55.362Z,7624.00
2023-03-01T10:39:55.324Z,7624.00
2023-03-01T10:40:55.323Z,7640.00
2023-03-01T10:41:55.332Z,7644.00
2023-03-01T10:42:55.273Z,7636.00
2023-03-01T10:43:55.260Z,7632.00
2023-03-01T10:44:55.263Z,7628.00
2023-03-01T10:45:55.282Z,7632.00
2023-03-01T10:46:55.237Z,7640.00
2023-03-01T10:47:55.253Z,7636.00
2023-03-01T10:48:55.257Z,7648.00
2023-03-01T10:49:55.224Z,7656.00
2023-03-01T10:50:55.198Z,7660.00
2023-03-01T10:51:55.215Z,7652.00
2023-03-01T10:52:55.187Z,7664.00
2023-03-01T10:53:55.181Z,7660.00
2023-03-01T10:54:55.184Z,7672.00
2023-03-01T10:55:55.148Z,7664.00
2023-03-01T10:56:55.199Z,7660.00
2023-03-01T10:57:55.159Z,7656.00
2023-03-01T10:58:55.130Z,7664.00
2023-03-01T10:59:55.110Z,7668.00
2023-03-01T11:00:55.110Z,7660.00
2023-03-01T11:01:55.162Z,7656.00
2023-03-01T11:02:55.095Z,7640.00
2023-03-01T11:03:56.093Z,7644.00
2023-03-01T11:04:55.127Z,7656.00
2023-03-01T11:05:55.060Z,7664.00
2023-03-01T11:06:55.038Z,7668.00
2023-03-01T11:07:55.066Z,7668.00
2023-03-01T11:08:55.062Z,7664.00
2023-03-01T11:09:55.017Z,7664.00
2023-03-01T11:10:55.003Z,7672.00
2023-03-01T11:11:55.019Z,7668.00
2023-03-01T11:12:55.003Z,7664.00
2023-03-01T11:13:55.000Z,7664.00
2023-03-01T11:14:54.996Z,7656.00
2023-03-01T11:15:55.019Z,7652.00
2023-03-01T11:16:54.989Z,7676.00
2023-03-01T11:18:02.849Z,7684.00
2023-03-01T11:18:56.924Z,7676.00
2023-03-01T11:20:02.676Z,7696.00
2023-03-01T11:20:56.906Z,7696.00
2023-03-01T11:21:54.936Z,7692.00
2023-03-01T11:22:54.920Z,7716.00
2023-03-01T11:23:54.870Z,7712.00
2023-03-01T11:25:08.805Z,7712.00
2023-03-01T11:25:56.861Z,7712.00
2023-03-01T11:26:54.847Z,7712.00
2023-03-01T11:27:54.849Z,7708.00
2023-03-01T11:28:54.829Z,7712.00
2023-03-01T11:29:54.827Z,7708.00
2023-03-01T11:31:07.129Z,7700.00
2023-03-01T11:31:57.999Z,7704.00
2023-03-01T11:32:55.957Z,7704.00
2023-03-01T11:33:54.771Z,7720.00
2023-03-01T11:34:54.752Z,7700.00
2023-03-01T11:35:54.789Z,7692.00
2023-03-01T11:36:54.758Z,7696.00
2023-03-01T11:37:54.743Z,7704.00
2023-03-01T11:38:54.715Z,7708.00
2023-03-01T11:39:54.726Z,7712.00
2023-03-01T11:40:56.144Z,7688.00
2023-03-01T11:41:56.914Z,7708.00
2023-03-01T11:42:54.695Z,7688.00
2023-03-01T11:43:54.680Z,7684.00
2023-03-01T11:44:54.646Z,7708.00
2023-03-01T11:45:54.642Z,7704.00
2023-03-01T11:46:54.777Z,7684.00
2023-03-01T11:47:54.646Z,7696.00
2023-03-01T11:48:54.617Z,7704.00
2023-03-01T11:49:54.594Z,7704.00
2023-03-01T11:50:54.581Z,7708.00
2023-03-01T11:51:54.579Z,7720.00
2023-03-01T11:52:54.596Z,7712.00
2023-03-01T11:53:54.559Z,7708.00
2023-03-01T11:54:54.550Z,7708.00
2023-03-01T11:55:54.579Z,7708.00
2023-03-01T11:56:54.528Z,7700.00
2023-03-01T11:57:54.528Z,7684.00
2023-03-01T11:58:54.495Z,7676.00
2023-03-01T11:59:54.485Z,7676.00
2023-03-01T12:00:54.488Z,7652.00
2023-03-01T12:01:54.474Z,7672.00
2023-03-01T12:02:55.487Z,7680.00
2023-03-01T12:03:54.525Z,7680.00
2023-03-01T12:04:54.439Z,7668.00
2023-03-01T12:05:54.429Z,7672.00
2023-03-01T12:06:56.773Z,7664.00
2023-03-01T12:07:55.436Z,7648.00
2023-03-01T12:08:54.408Z,7676.00
2023-03-01T12:09:54.387Z,7680.00
2023-03-01T12:10:54.429Z,7668.00
2023-03-01T12:11:54.378Z,7692.00
2023-03-01T12:12:54.380Z,7692.00
2023-03-01T12:13:54.346Z,7684.00
2023-03-01T12:14:54.324Z,7684.00
2023-03-01T12:15:54.321Z,7700.00
2023-03-01T12:16:54.316Z,7696.00
2023-03-01T12:17:54.318Z,7688.00
2023-03-01T12:18:54.307Z,7688.00
2023-03-01T12:19:54.267Z,7684.00
2023-03-01T12:20:54.300Z,7672.00
2023-03-01T12:21:54.261Z,7676.00
2023-03-01T12:22:54.266Z,7692.00
2023-03-01T12:23:54.227Z,7688.00
2023-03-01T12:24:54.225Z,7684.00
2023-03-01T12:25:54.235Z,7676.00
2023-03-01T12:26:54.201Z,7696.00
2023-03-01T12:27:54.216Z,7684.00
2023-03-01T12:28:54.200Z,7692.00
2023-03-01T12:29:54.173Z,7688.00
2023-03-01T12:30:54.151Z,7684.00
2023-03-01T12:31:54.285Z,7680.00
2023-03-01T12:32:54.168Z,7696.00
2023-03-01T12:33:54.117Z,7688.00
2023-03-01T12:34:54.117Z,7676.00
2023-03-01T12:35:54.149Z,7684.00
2023-03-01T12:36:54.092Z,7676.00
2023-03-01T12:37:54.092Z,7660.00
2023-03-01T12:38:54.078Z,7672.00
2023-03-01T12:39:54.051Z,7640.00